createdAt,value
2022-12-22T00:00:46.371Z,2.83
2022-12-22T00:03:32.670Z,2.99
2022-12-22T00:06:17.483Z,2.97
2022-12-22T00:09:05.652Z,3.05
2022-12-22T00:11:51.049Z,3.08
2022-12-22T00:14:35.905Z,3.19
2022-12-22T00:17:21.663Z,3.24
2022-12-22T00:20:06.743Z,3.16
2022-12-22T00:22:51.821Z,3.08
2022-12-22T00:25:36.782Z,3.14
2022-12-22T00:28:29.343Z,3.24
2022-12-22T00:31:14.174Z,3.31
2022-12-22T00:33:59.096Z,3.29
2022-12-22T00:36:44.276Z,3.32
2022-12-22T00:39:32.281Z,3.48
2022-12-22T00:42:17.374Z,3.37
2022-12-22T00:45:02.447Z,3.37
2022-12-22T00:47:49.220Z,3.41
2022-12-22T00:50:34.231Z,3.49
2022-12-22T00:53:19.081Z,3.66
2022-12-22T00:56:03.876Z,3.72
2022-12-22T00:58:48.896Z,3.89
2022-12-22T01:01:33.844Z,3.91
2022-12-22T01:04:19.038Z,3.92
2022-12-22T01:07:04.284Z,4.04
2022-12-22T01:09:49.356Z,4.16
2022-12-22T01:12:37.927Z,4.24
2022-12-22T01:15:28.199Z,4.22
2022-12-22T01:18:15.196Z,4.26
2022-12-22T01:21:00.395Z,4.39
2022-12-22T01:23:46.159Z,4.40
2022-12-22T01:26:31.311Z,4.47
2022-12-22T01:29:16.172Z,4.50
2022-12-22T01:32:01.285Z,4.60
2022-12-22T01:34:46.381Z,4.67
2022-12-22T01:37:31.771Z,4.64
2022-12-22T01:40:16.910Z,4.70
2022-12-22T01:43:02.083Z,4.66
2022-12-22T01:45:48.837Z,4.66
2022-12-22T01:48:35.217Z,4.78
2022-12-22T01:51:34.350Z,4.79
2022-12-22T01:54:19.777Z,4.81
2022-12-22T01:57:04.949Z,4.87
2022-12-22T01:59:49.985Z,4.91
2022-12-22T02:02:37.364Z,4.91
2022-12-22T02:05:23.327Z,4.94
2022-12-22T02:08:14.739Z,4.80
2022-12-22T02:11:18.501Z,4.79
2022-12-22T02:14:18.434Z,4.90
2022-12-22T02:17:07.265Z,4.95
2022-12-22T02:20:11.299Z,4.94
2022-12-22T02:23:15.250Z,5.01
2022-12-22T02:26:04.519Z,5.03
2022-12-22T02:28:50.484Z,5.00
2022-12-22T02:31:35.295Z,5.04
2022-12-22T02:34:20.153Z,5.09
2022-12-22T02:37:15.954Z,5.14
2022-12-22T02:40:16.029Z,5.16
2022-12-22T02:43:22.517Z,5.18
2022-12-22T02:46:12.012Z,5.10
2022-12-22T02:49:04.036Z,5.12
2022-12-22T02:51:51.917Z,5.19
2022-12-22T02:54:37.464Z,5.00
2022-12-22T02:57:24.276Z,5.10
2022-12-22T03:00:09.178Z,5.02
2022-12-22T03:02:54.475Z,5.04
2022-12-22T03:05:39.389Z,5.05
2022-12-22T03:08:24.557Z,5.13
2022-12-22T03:11:09.666Z,5.16
2022-12-22T03:13:54.514Z,5.22
2022-12-22T03:16:39.728Z,5.25
2022-12-22T03:19:24.604Z,5.24
2022-12-22T03:22:09.340Z,5.28
2022-12-22T03:24:54.186Z,5.27
2022-12-22T03:27:20.553Z,5.17
2022-12-22T03:29:46.904Z,5.12
2022-12-22T03:32:13.312Z,5.14
2022-12-22T03:34:41.456Z,5.15
2022-12-22T03:37:07.826Z,5.15
2022-12-22T03:39:34.183Z,5.25
2022-12-22T03:42:19.337Z,5.26
2022-12-22T03:45:04.509Z,5.27
2022-12-22T03:47:31.595Z,5.24
2022-12-22T03:49:57.990Z,5.38
2022-12-22T03:52:24.417Z,5.28
2022-12-22T03:54:51.514Z,5.30
2022-12-22T03:57:17.897Z,5.28
2022-12-22T03:59:44.260Z,5.23
2022-12-22T04:02:10.755Z,5.25
2022-12-22T04:04:37.253Z,5.37
2022-12-22T04:07:03.679Z,5.30
2022-12-22T04:09:30.127Z,5.36
2022-12-22T04:12:15.345Z,5.56
2022-12-22T04:14:41.692Z,5.47
2022-12-22T04:17:08.205Z,5.44
2022-12-22T04:19:34.616Z,5.41
2022-12-22T04:22:01.531Z,5.53
2022-12-22T04:24:27.879Z,5.49
2022-12-22T04:26:54.258Z,5.59
2022-12-22T04:29:20.631Z,5.43
2022-12-22T04:31:47.115Z,5.48
2022-12-22T04:34:13.569Z,5.57
2022-12-22T04:36:40.061Z,5.57
2022-12-22T04:39:07.680Z,5.50
2022-12-22T04:41:34.056Z,5.50
2022-12-22T04:44:00.404Z,5.54
2022-12-22T04:46:27.056Z,5.64
2022-12-22T04:48:59.663Z,5.71
2022-12-22T04:51:27.160Z,5.66
2022-12-22T04:53:53.665Z,5.77
2022-12-22T04:56:20.055Z,5.70
2022-12-22T04:58:46.427Z,5.68
2022-12-22T05:01:14.244Z,5.78
2022-12-22T05:03:40.807Z,5.80
2022-12-22T05:06:10.683Z,5.73
2022-12-22T05:08:37.346Z,5.55
2022-12-22T05:11:03.738Z,5.60
2022-12-22T05:13:31.072Z,5.67
2022-12-22T05:16:04.745Z,5.63
2022-12-22T05:18:31.825Z,5.70
2022-12-22T05:20:58.244Z,5.73
2022-12-22T05:23:24.672Z,5.68
2022-12-22T05:25:51.107Z,5.57
2022-12-22T05:28:17.503Z,5.46
2022-12-22T05:30:43.944Z,5.53
2022-12-22T05:33:10.345Z,5.53
2022-12-22T05:35:36.661Z,5.63
2022-12-22T05:38:03.037Z,5.77
2022-12-22T05:40:29.444Z,5.68
2022-12-22T05:42:55.845Z,5.66
2022-12-22T05:45:22.196Z,5.79
2022-12-22T05:47:50.642Z,5.87
2022-12-22T05:50:18.257Z,5.71
2022-12-22T05:52:47.001Z,5.78
2022-12-22T05:55:14.320Z,5.89
2022-12-22T05:57:43.872Z,5.91
2022-12-22T06:00:12.640Z,5.74
2022-12-22T06:02:39.969Z,5.65
2022-12-22T06:05:06.538Z,5.78
2022-12-22T06:07:32.962Z,5.76
2022-12-22T06:09:59.407Z,5.75
2022-12-22T06:12:25.870Z,5.85
2022-12-22T06:14:52.223Z,5.89
2022-12-22T06:17:18.663Z,5.88
2022-12-22T06:19:45.015Z,5.88
2022-12-22T06:22:11.485Z,5.92
2022-12-22T06:24:37.952Z,5.92
2022-12-22T06:27:04.420Z,5.84
2022-12-22T06:29:30.878Z,5.90
2022-12-22T06:31:57.290Z,5.91
2022-12-22T06:34:24.100Z,5.91
2022-12-22T06:36:50.567Z,5.98
2022-12-22T06:39:17.266Z,6.07
2022-12-22T06:42:02.544Z,6.00
2022-12-22T06:44:29.284Z,5.90
2022-12-22T06:46:56.224Z,5.92
2022-12-22T06:49:22.984Z,5.90
2022-12-22T06:51:49.644Z,5.98
2022-12-22T06:54:18.422Z,5.84
2022-12-22T06:56:48.938Z,5.80
2022-12-22T06:59:20.580Z,5.97
2022-12-22T07:01:49.788Z,5.97
2022-12-22T07:04:20.854Z,5.80
2022-12-22T07:06:50.362Z,5.91
2022-12-22T07:09:16.903Z,6.05
2022-12-22T07:11:43.491Z,6.01
2022-12-22T07:14:11.418Z,6.08
2022-12-22T07:16:38.259Z,6.20
2022-12-22T07:19:04.936Z,6.08
2022-12-22T07:21:31.863Z,6.10
2022-12-22T07:23:58.330Z,6.10
2022-12-22T07:26:25.419Z,6.08
2022-12-22T07:28:52.593Z,6.23
2022-12-22T07:31:27.184Z,6.26
2022-12-22T07:33:54.012Z,6.33
2022-12-22T07:36:26.473Z,6.25
2022-12-22T07:39:15.040Z,6.14
2022-12-22T07:42:19.593Z,6.27
2022-12-22T07:44:53.784Z,6.22
2022-12-22T07:47:35.720Z,6.13
2022-12-22T07:50:22.789Z,6.15
2022-12-22T07:52:53.061Z,6.23
2022-12-22T07:55:24.106Z,6.04
2022-12-22T07:57:57.733Z,5.99
2022-12-22T08:01:25.950Z,5.99
2022-12-22T08:03:52.917Z,6.06
2022-12-22T08:06:37.361Z,6.03
2022-12-22T08:12:25.853Z,6.12
2022-12-22T08:15:05.263Z,6.23
2022-12-22T08:17:37.313Z,6.17
2022-12-22T08:20:04.467Z,6.20
2022-12-22T08:22:31.156Z,6.17
2022-12-22T08:25:00.806Z,6.14
2022-12-22T08:28:05.908Z,6.41
2022-12-22T08:31:36.616Z,6.31
2022-12-22T08:40:33.244Z,6.23
2022-12-22T08:43:02.852Z,6.32
2022-12-22T08:49:12.129Z,6.52
2022-12-22T08:51:41.005Z,6.38
2022-12-22T08:54:25.087Z,6.33
2022-12-22T08:56:51.818Z,6.28
2022-12-22T09:06:18.151Z,6.70
2022-12-22T09:09:28.774Z,6.55
2022-12-22T09:17:52.405Z,6.73
2022-12-22T09:20:37.095Z,6.92
2022-12-22T09:23:17.920Z,6.83
2022-12-22T09:25:50.769Z,6.69
2022-12-22T09:28:25.273Z,6.62
2022-12-22T09:34:18.515Z,6.55
2022-12-22T09:43:55.439Z,6.69
2022-12-22T10:36:24.372Z,7.20
2022-12-22T10:46:17.762Z,7.11
2022-12-22T10:52:25.445Z,6.89
2022-12-22T10:55:20.576Z,7.09
2022-12-22T11:01:30.133Z,6.94
2022-12-22T11:04:29.785Z,7.00
2022-12-22T11:42:24.922Z,7.33
2022-12-22T11:45:10.248Z,7.46
2022-12-22T11:47:49.546Z,7.45
2022-12-22T11:51:01.998Z,7.41
2022-12-22T11:53:18.000Z,7.38
2022-12-22T11:55:50.834Z,7.36
2022-12-22T11:58:34.002Z,7.45
2022-12-22T12:01:17.866Z,7.47
2022-12-22T12:04:00.879Z,7.52
2022-12-22T12:06:33.493Z,7.39
2022-12-22T12:09:49.503Z,7.46
2022-12-22T12:12:44.703Z,7.65
2022-12-22T12:16:02.055Z,7.55
2022-12-22T12:18:54.806Z,7.59
2022-12-22T12:21:53.825Z,7.54
2022-12-22T12:24:54.892Z,7.45
2022-12-22T12:30:42.192Z,7.59
2022-12-22T12:33:32.852Z,7.64
2022-12-22T12:36:12.321Z,7.58
2022-12-22T12:39:34.747Z,7.58
2022-12-22T13:47:44.869Z,7.82
2022-12-22T13:56:38.241Z,7.63
2022-12-22T13:59:54.171Z,7.61
2022-12-22T14:02:22.920Z,7.60
2022-12-22T14:05:07.663Z,7.63
2022-12-22T14:15:12.556Z,7.37
2022-12-22T14:17:47.922Z,7.07
2022-12-22T14:20:40.113Z,7.39
2022-12-22T14:29:19.414Z,7.52
2022-12-22T14:32:22.450Z,7.65
2022-12-22T14:38:43.915Z,7.31
2022-12-22T14:42:15.099Z,7.45
2022-12-22T14:58:40.611Z,7.46
2022-12-22T15:01:31.236Z,7.46
2022-12-22T15:10:48.689Z,7.57
2022-12-22T15:23:49.541Z,7.45
2022-12-22T15:26:16.070Z,7.29
2022-12-22T15:28:56.891Z,7.42
2022-12-22T15:31:37.550Z,7.46
2022-12-22T15:34:12.188Z,7.40
2022-12-22T15:37:24.073Z,7.44
2022-12-22T15:40:08.993Z,7.34
2022-12-22T15:42:38.529Z,7.34
2022-12-22T15:45:05.256Z,7.33
2022-12-22T15:50:55.183Z,7.32
2022-12-22T16:03:25.154Z,7.14
2022-12-22T16:07:35.104Z,7.20
2022-12-22T16:08:52.391Z,7.10
2022-12-22T16:25:09.039Z,7.11
2022-12-22T16:28:45.761Z,7.16
2022-12-22T16:37:58.988Z,7.12
2022-12-22T16:40:27.166Z,6.91
2022-12-22T16:49:47.655Z,6.93
2022-12-22T16:52:18.192Z,6.87
2022-12-22T16:54:47.964Z,6.96
2022-12-22T16:57:18.827Z,6.75
2022-12-22T16:59:45.367Z,6.62
2022-12-22T17:02:22.523Z,6.79
2022-12-22T17:04:50.134Z,6.76
2022-12-22T17:07:17.121Z,6.73
2022-12-22T17:09:45.176Z,6.76
2022-12-22T17:12:18.888Z,6.70
2022-12-22T17:14:46.782Z,6.67
2022-12-22T17:17:17.513Z,6.68
2022-12-22T17:19:44.287Z,6.88
2022-12-22T17:22:19.807Z,6.87
2022-12-22T17:24:46.144Z,6.85
2022-12-22T17:27:14.328Z,6.76
2022-12-22T17:29:41.106Z,6.70
2022-12-22T17:32:12.566Z,6.64
2022-12-22T17:34:38.924Z,6.47
2022-12-22T17:37:09.671Z,6.55
2022-12-22T17:39:38.532Z,6.63
2022-12-22T17:42:14.910Z,6.56
2022-12-22T17:44:41.383Z,6.54
2022-12-22T17:47:09.746Z,6.49
2022-12-22T17:49:36.154Z,6.55
2022-12-22T17:52:02.573Z,6.66
2022-12-22T17:54:28.956Z,6.54
2022-12-22T17:57:00.781Z,6.49
2022-12-22T17:59:27.368Z,6.49
2022-12-22T18:01:53.871Z,6.39
2022-12-22T18:04:20.495Z,6.37
2022-12-22T18:06:47.173Z,6.30
2022-12-22T18:09:21.593Z,6.41
2022-12-22T18:11:48.519Z,6.43
2022-12-22T18:14:15.403Z,6.28
2022-12-22T18:16:43.237Z,6.31
2022-12-22T18:19:09.740Z,6.29
2022-12-22T18:21:36.317Z,6.26
2022-12-22T18:24:03.276Z,6.35
2022-12-22T18:26:30.328Z,6.33
2022-12-22T18:28:57.083Z,6.42
2022-12-22T18:31:23.958Z,6.26
2022-12-22T18:33:50.971Z,6.13
2022-12-22T18:36:23.678Z,6.14
2022-12-22T18:38:50.121Z,6.09
2022-12-22T18:41:23.515Z,6.18
2022-12-22T18:43:50.588Z,6.17
2022-12-22T18:46:17.366Z,6.21
2022-12-22T18:48:43.805Z,6.30
2022-12-22T18:51:31.105Z,6.24
2022-12-22T18:53:57.539Z,5.99
2022-12-22T18:56:23.911Z,5.96
2022-12-22T18:58:50.362Z,5.85
2022-12-22T19:01:18.226Z,5.93
2022-12-22T19:03:45.640Z,5.72
2022-12-22T19:06:12.259Z,5.67
2022-12-22T19:08:45.090Z,5.66
2022-12-22T19:11:12.675Z,5.48
2022-12-22T19:13:40.684Z,5.66
2022-12-22T19:16:07.722Z,5.54
2022-12-22T19:18:34.160Z,5.54
2022-12-22T19:21:00.547Z,5.40
2022-12-22T19:23:26.967Z,5.36
2022-12-22T19:25:57.435Z,5.30
2022-12-22T19:28:27.215Z,5.35
2022-12-22T19:30:55.212Z,5.02
2022-12-22T19:33:41.904Z,5.07
2022-12-22T19:36:15.606Z,5.03
2022-12-22T19:38:42.013Z,5.00
2022-12-22T19:41:13.726Z,4.97
2022-12-22T19:43:40.119Z,4.56
2022-12-22T19:46:09.062Z,4.41
2022-12-22T19:48:35.593Z,4.41
2022-12-22T19:51:01.972Z,4.47
2022-12-22T19:53:28.435Z,4.46
2022-12-22T19:55:56.621Z,4.30
2022-12-22T19:58:25.331Z,4.26
2022-12-22T20:00:52.219Z,4.20
2022-12-22T20:03:26.155Z,4.18
2022-12-22T20:05:52.994Z,4.17
2022-12-22T20:08:19.549Z,4.20
2022-12-22T20:10:46.301Z,4.09
2022-12-22T20:13:15.595Z,4.13
2022-12-22T20:15:42.139Z,4.14
2022-12-22T20:18:16.384Z,3.81
2022-12-22T20:20:44.083Z,3.84
2022-12-22T20:23:13.238Z,4.05
2022-12-22T20:25:45.301Z,3.92
2022-12-22T20:28:14.421Z,3.97
2022-12-22T20:30:41.118Z,3.77
2022-12-22T20:33:07.600Z,3.93
2022-12-22T20:35:35.357Z,3.96
2022-12-22T20:38:10.867Z,3.95
2022-12-22T20:40:40.524Z,4.10
2022-12-22T20:43:11.313Z,4.08
2022-12-22T20:45:37.704Z,4.25
2022-12-22T20:48:04.336Z,4.43
2022-12-22T20:50:33.854Z,4.46
2022-12-22T20:53:00.395Z,4.44
2022-12-22T20:55:28.251Z,4.56
2022-12-22T20:57:54.601Z,4.64
2022-12-22T21:00:22.930Z,4.71
2022-12-22T21:02:49.624Z,4.67
2022-12-22T21:05:16.421Z,4.71
2022-12-22T21:07:44.103Z,4.82
2022-12-22T21:10:21.982Z,4.84
2022-12-22T21:12:48.606Z,4.74
2022-12-22T21:15:23.225Z,4.60
2022-12-22T21:17:57.709Z,4.53
2022-12-22T21:20:26.277Z,4.65
2022-12-22T21:22:52.601Z,4.63
2022-12-22T21:25:18.914Z,4.69
2022-12-22T21:27:46.754Z,4.67
2022-12-22T21:30:23.624Z,4.66
2022-12-22T21:32:50.492Z,4.54
2022-12-22T21:35:18.220Z,4.61
2022-12-22T21:37:45.888Z,4.72
2022-12-22T21:40:20.419Z,4.70
2022-12-22T21:42:47.204Z,4.49
2022-12-22T21:45:14.541Z,4.53
2022-12-22T21:47:41.263Z,4.58
2022-12-22T21:50:08.369Z,4.64
2022-12-22T21:52:34.757Z,4.64
2022-12-22T21:55:01.160Z,4.67
2022-12-22T21:57:28.596Z,4.68
2022-12-22T21:59:54.935Z,4.69
2022-12-22T22:02:21.368Z,4.63
2022-12-22T22:04:54.150Z,4.60
2022-12-22T22:07:21.517Z,4.59
2022-12-22T22:09:47.843Z,4.65
2022-12-22T22:12:32.528Z,4.71
2022-12-22T22:15:00.997Z,4.67
2022-12-22T22:17:27.371Z,4.72
2022-12-22T22:19:53.739Z,4.79
2022-12-22T22:22:20.113Z,4.95
2022-12-22T22:24:46.509Z,4.97
2022-12-22T22:27:13.359Z,4.87
2022-12-22T22:29:39.852Z,4.95
2022-12-22T22:32:29.383Z,4.99
2022-12-22T22:34:55.910Z,4.77
2022-12-22T22:37:22.358Z,4.76
2022-12-22T22:39:49.334Z,4.79
2022-12-22T22:42:15.881Z,4.75
2022-12-22T22:44:42.248Z,4.56
2022-12-22T22:47:08.628Z,4.61
2022-12-22T22:49:35.103Z,4.54
2022-12-22T22:52:01.491Z,4.16
2022-12-22T22:54:27.823Z,4.23
2022-12-22T22:56:54.583Z,3.98
2022-12-22T22:59:20.919Z,4.10
2022-12-22T23:01:47.316Z,4.05
2022-12-22T23:04:13.864Z,4.00
2022-12-22T23:06:41.698Z,3.93
2022-12-22T23:09:08.550Z,3.99
2022-12-22T23:11:34.876Z,4.17
2022-12-22T23:14:01.239Z,4.14
2022-12-22T23:16:30.900Z,4.05
2022-12-22T23:19:02.033Z,3.96
2022-12-22T23:21:28.396Z,4.17
2022-12-22T23:23:56.124Z,4.12
2022-12-22T23:26:23.044Z,4.33
2022-12-22T23:28:49.359Z,4.38
2022-12-22T23:31:15.818Z,4.39
2022-12-22T23:33:42.158Z,4.28
2022-12-22T23:36:08.817Z,4.48
2022-12-22T23:38:35.154Z,4.39
2022-12-22T23:41:03.362Z,4.52
2022-12-22T23:43:30.176Z,4.46
2022-12-22T23:45:56.600Z,4.34
2022-12-22T23:48:22.968Z,4.36
2022-12-22T23:50:49.844Z,4.39
2022-12-22T23:53:16.860Z,4.44
2022-12-22T23:55:47.149Z,4.62
2022-12-22T23:58:13.590Z,4.47
